createdAt,value
2023-06-21T00:01:58.219Z,17.45
2023-06-21T00:04:58.222Z,17.37
2023-06-21T00:07:58.221Z,17.42
2023-06-21T00:10:58.234Z,17.52
2023-06-21T00:13:58.281Z,17.57
2023-06-21T00:16:58.239Z,17.55
2023-06-21T00:19:58.232Z,17.57
2023-06-21T00:22:58.239Z,17.63
2023-06-21T00:25:58.233Z,17.65
2023-06-21T00:28:58.246Z,17.65
2023-06-21T00:31:58.236Z,17.59
2023-06-21T00:34:58.234Z,17.45
2023-06-21T00:37:58.232Z,17.42
2023-06-21T00:40:58.228Z,17.33
2023-06-21T00:43:58.236Z,17.35
2023-06-21T00:46:58.301Z,17.31
2023-06-21T00:49:58.229Z,17.18
2023-06-21T00:52:58.232Z,17.18
2023-06-21T00:55:58.235Z,17.16
2023-06-21T00:58:58.239Z,17
2023-06-21T01:01:58.297Z,16.97
2023-06-21T01:04:58.246Z,16.99
2023-06-21T01:07:58.243Z,16.92
2023-06-21T01:10:58.243Z,16.94
2023-06-21T01:13:58.248Z,16.86
2023-06-21T01:16:58.246Z,16.8
2023-06-21T01:19:58.251Z,16.72
2023-06-21T01:22:58.249Z,16.76
2023-06-21T01:25:58.250Z,16.68
2023-06-21T01:28:58.261Z,16.68
2023-06-21T01:31:58.304Z,16.7
2023-06-21T01:34:58.416Z,16.65
2023-06-21T01:37:58.271Z,16.69
2023-06-21T01:40:58.285Z,16.69
2023-06-21T01:43:58.259Z,16.56
2023-06-21T01:46:58.271Z,16.56
2023-06-21T01:49:58.261Z,16.46
2023-06-21T01:52:58.265Z,16.38
2023-06-21T01:55:58.277Z,16.4
2023-06-21T01:58:58.264Z,16.28
2023-06-21T02:01:59.465Z,16.22
2023-06-21T02:04:58.291Z,16.24
2023-06-21T02:07:58.286Z,16.2
2023-06-21T02:10:58.296Z,16.15
2023-06-21T02:13:58.284Z,16.17
2023-06-21T02:16:58.281Z,16.09
2023-06-21T02:19:58.286Z,16.11
2023-06-21T02:22:58.304Z,16.03
2023-06-21T02:25:58.296Z,15.97
2023-06-21T02:28:58.300Z,15.91
2023-06-21T02:31:58.297Z,15.95
2023-06-21T02:34:58.299Z,15.89
2023-06-21T02:37:58.313Z,15.9
2023-06-21T02:40:58.316Z,15.84
2023-06-21T02:43:58.311Z,15.88
2023-06-21T02:46:58.350Z,16
2023-06-21T02:49:58.322Z,16.02
2023-06-21T02:52:58.322Z,16.11
2023-06-21T02:55:58.333Z,16.1
2023-06-21T02:58:58.331Z,16.16
2023-06-21T03:01:59.909Z,16.17
2023-06-21T03:04:58.336Z,16.07
2023-06-21T03:07:58.373Z,16.06
2023-06-21T03:10:58.339Z,16.01
2023-06-21T03:13:58.351Z,15.99
2023-06-21T03:16:58.357Z,15.96
2023-06-21T03:19:58.350Z,15.98
2023-06-21T03:22:58.357Z,15.98
2023-06-21T03:25:58.369Z,15.98
2023-06-21T03:28:58.373Z,16.07
2023-06-21T03:31:58.366Z,16.05
2023-06-21T03:34:58.386Z,16.05
2023-06-21T03:37:58.389Z,16.05
2023-06-21T03:40:58.408Z,16.05
2023-06-21T03:43:58.401Z,16.05
2023-06-21T03:46:58.409Z,16.04
2023-06-21T03:49:58.419Z,16.04
2023-06-21T03:52:58.432Z,16.02
2023-06-21T03:55:58.439Z,16.04
2023-06-21T03:58:58.446Z,16.11
2023-06-21T04:01:58.458Z,16.19
2023-06-21T04:04:58.460Z,16.16
2023-06-21T04:07:58.471Z,16.22
2023-06-21T04:10:58.479Z,16.18
2023-06-21T04:13:58.484Z,16.13
2023-06-21T04:16:58.483Z,16.19
2023-06-21T04:19:58.497Z,16.1
2023-06-21T04:22:58.508Z,16.2
2023-06-21T04:25:58.517Z,16.24
2023-06-21T04:28:58.508Z,16.18
2023-06-21T04:31:58.512Z,16.24
2023-06-21T04:34:58.521Z,16.21
2023-06-21T04:37:58.529Z,16.25
2023-06-21T04:40:58.531Z,16.33
2023-06-21T04:43:58.532Z,16.37
2023-06-21T04:46:58.539Z,16.39
2023-06-21T04:50:04.492Z,16.41
2023-06-21T04:52:58.547Z,16.4
2023-06-21T04:55:58.574Z,16.34
2023-06-21T04:58:58.566Z,16.36
2023-06-21T05:01:58.565Z,16.26
2023-06-21T05:04:58.581Z,16.38
2023-06-21T05:07:58.587Z,16.42
2023-06-21T05:10:58.590Z,16.44
2023-06-21T05:13:58.613Z,16.48
2023-06-21T05:16:58.612Z,16.35
2023-06-21T05:19:58.618Z,16.36
2023-06-21T05:22:58.626Z,16.46
2023-06-21T05:25:58.639Z,16.5
2023-06-21T05:28:58.633Z,16.69
2023-06-21T05:31:58.645Z,16.71
2023-06-21T05:34:58.656Z,16.77
2023-06-21T05:37:58.663Z,16.72
2023-06-21T05:40:58.678Z,16.64
2023-06-21T05:43:59.904Z,16.74
2023-06-21T05:46:58.685Z,17
2023-06-21T05:49:58.700Z,16.97
2023-06-21T05:52:58.712Z,16.99
2023-06-21T05:55:58.713Z,16.86
2023-06-21T05:58:58.713Z,16.97
2023-06-21T06:01:58.737Z,16.98
2023-06-21T06:04:58.724Z,16.59
2023-06-21T06:07:58.741Z,16.71
2023-06-21T06:10:58.739Z,16.81
2023-06-21T06:13:58.754Z,16.97
2023-06-21T06:16:58.751Z,16.91
2023-06-21T06:19:58.765Z,16.69
2023-06-21T06:22:58.765Z,16.58
2023-06-21T06:25:58.769Z,16.62
2023-06-21T06:28:58.784Z,16.59
2023-06-21T06:31:58.872Z,16.72
2023-06-21T06:34:59.270Z,16.49
2023-06-21T06:37:58.779Z,16.23
2023-06-21T06:40:58.789Z,16.09
2023-06-21T06:43:58.782Z,16.48
2023-06-21T06:46:58.787Z,16.28
2023-06-21T06:49:58.818Z,16.21
2023-06-21T06:52:58.794Z,16.46
2023-06-21T06:55:58.818Z,16.3
2023-06-21T06:58:58.824Z,16.18
2023-06-21T07:01:58.841Z,16.64
2023-06-21T07:04:58.844Z,16.77
2023-06-21T07:07:58.830Z,16.76
2023-06-21T07:10:58.819Z,16
2023-06-21T07:13:58.824Z,16.02
2023-06-21T07:16:58.831Z,15.9
2023-06-21T07:19:58.877Z,15.74
2023-06-21T07:22:58.879Z,15.46
2023-06-21T07:25:58.893Z,15.73
2023-06-21T07:28:58.854Z,15.92
2023-06-21T07:31:58.851Z,15.67
2023-06-21T07:34:58.854Z,15.87
2023-06-21T07:37:58.864Z,16.08
2023-06-21T07:40:58.864Z,15.76
2023-06-21T07:43:58.864Z,15.61
2023-06-21T07:46:58.883Z,15.82
2023-06-21T07:50:06.645Z,15.58
2023-06-21T07:52:58.865Z,15.84
2023-06-21T07:55:58.874Z,15.83
2023-06-21T07:58:58.876Z,15.86
2023-06-21T08:01:58.886Z,15.74
2023-06-21T08:04:58.871Z,15.71
2023-06-21T08:07:58.897Z,15.69
2023-06-21T08:10:58.892Z,15.34
2023-06-21T08:13:58.911Z,15.29
2023-06-21T08:16:58.902Z,15.5
2023-06-21T08:19:58.912Z,15.73
2023-06-21T08:22:58.929Z,15.77
2023-06-21T08:25:58.961Z,15.44
2023-06-21T08:28:58.961Z,15.13
2023-06-21T08:31:59.028Z,15.5
2023-06-21T08:34:58.978Z,15.18
2023-06-21T08:37:59.031Z,15.07
2023-06-21T08:40:58.999Z,14.96
2023-06-21T08:43:59.028Z,14.91
2023-06-21T08:46:59.033Z,15.19
2023-06-21T08:49:59.052Z,15.38
2023-06-21T08:52:59.064Z,15.71
2023-06-21T08:55:59.081Z,15.61
2023-06-21T08:58:59.079Z,15.52
2023-06-21T09:02:00.159Z,15.49
2023-06-21T09:04:59.278Z,15.42
2023-06-21T09:07:59.113Z,14.81
2023-06-21T09:10:59.126Z,15.28
2023-06-21T09:13:59.160Z,15.02
2023-06-21T09:16:59.153Z,14.94
2023-06-21T09:19:59.182Z,15.13
2023-06-21T09:22:59.178Z,15.29
2023-06-21T09:25:59.200Z,15.43
2023-06-21T09:28:59.211Z,15.61
2023-06-21T09:31:59.310Z,15.4
2023-06-21T09:34:59.242Z,15.47
2023-06-21T09:37:59.250Z,15.42
2023-06-21T09:40:59.248Z,15.47
2023-06-21T09:43:59.280Z,15.69
2023-06-21T09:46:59.275Z,15.53
2023-06-21T09:49:59.327Z,15.32
2023-06-21T09:52:59.307Z,15.35
2023-06-21T09:55:59.331Z,15.14
2023-06-21T09:58:59.339Z,15.7
2023-06-21T10:01:59.368Z,15.2
2023-06-21T10:04:59.367Z,15.4
2023-06-21T10:07:59.393Z,15.55
2023-06-21T10:10:59.399Z,15.37
2023-06-21T10:13:59.428Z,15.3
2023-06-21T10:16:59.424Z,15.41
2023-06-21T10:19:59.469Z,15.19
2023-06-21T10:22:59.459Z,15.7
2023-06-21T10:25:59.488Z,15.57
2023-06-21T10:28:59.499Z,15.37
2023-06-21T10:31:59.548Z,15.35
2023-06-21T10:34:59.516Z,15.09
2023-06-21T10:37:59.545Z,14.88
2023-06-21T10:40:59.550Z,14.99
2023-06-21T10:43:59.576Z,14.95
2023-06-21T10:46:59.600Z,15.12
2023-06-21T10:49:59.763Z,14.9
2023-06-21T10:52:59.637Z,15.06
2023-06-21T10:55:59.653Z,14.88
2023-06-21T10:58:59.669Z,14.58
2023-06-21T11:01:59.698Z,14.51
2023-06-21T11:04:59.774Z,14.24
2023-06-21T11:07:59.729Z,14.27
2023-06-21T11:10:59.722Z,14.48
2023-06-21T11:13:59.756Z,14.27
2023-06-21T11:16:59.783Z,14.24
2023-06-21T11:19:59.794Z,14.1
2023-06-21T11:22:59.818Z,14.25
2023-06-21T11:25:59.833Z,14.55
2023-06-21T11:28:59.862Z,14.57
2023-06-21T11:31:59.870Z,14.58
2023-06-21T11:34:59.902Z,14.22
2023-06-21T11:37:59.943Z,13.92
2023-06-21T11:40:59.945Z,14.08
2023-06-21T11:43:59.954Z,13.88
2023-06-21T11:47:00.037Z,14.03
2023-06-21T11:50:00.050Z,13.82
2023-06-21T11:53:00.004Z,14.12
2023-06-21T11:56:00.032Z,14.19
2023-06-21T11:59:00.068Z,13.97
2023-06-21T12:02:00.084Z,14.13
2023-06-21T12:05:00.200Z,13.87
2023-06-21T12:08:00.114Z,13.9
2023-06-21T12:11:00.142Z,14.16
2023-06-21T12:14:00.175Z,14.21
2023-06-21T12:17:00.180Z,13.86
2023-06-21T12:20:00.218Z,13.95
2023-06-21T12:23:00.220Z,13.96
2023-06-21T12:26:00.394Z,13.99
2023-06-21T12:29:00.270Z,13.97
2023-06-21T12:32:00.298Z,14.05
2023-06-21T12:35:00.347Z,14.09
2023-06-21T12:38:00.334Z,14.29
2023-06-21T12:41:00.389Z,14.28
2023-06-21T12:44:00.369Z,14.55
2023-06-21T12:47:00.388Z,14.25
2023-06-21T12:50:00.399Z,14.25
2023-06-21T12:53:00.417Z,14.48
2023-06-21T12:56:00.423Z,14.23
2023-06-21T12:59:00.441Z,14.16
2023-06-21T13:02:00.469Z,14.29
2023-06-21T13:05:00.446Z,14.19
2023-06-21T13:08:00.459Z,14.31
2023-06-21T13:11:00.466Z,14.1
2023-06-21T13:14:00.478Z,14.11
2023-06-21T13:17:00.483Z,14.18
2023-06-21T13:20:00.521Z,14.01
2023-06-21T13:23:00.491Z,14.1
2023-06-21T13:26:00.510Z,14.23
2023-06-21T13:29:00.500Z,13.88
2023-06-21T13:32:00.544Z,13.64
2023-06-21T13:35:00.759Z,13.5
2023-06-21T13:38:00.506Z,13.84
2023-06-21T13:41:00.513Z,13.81
2023-06-21T13:44:00.521Z,13.82
2023-06-21T13:47:00.597Z,13.56
2023-06-21T13:50:00.522Z,13.78
2023-06-21T13:53:00.548Z,13.87
2023-06-21T13:56:00.525Z,13.8
2023-06-21T13:59:00.532Z,13.82
2023-06-21T14:02:00.538Z,13.75
2023-06-21T14:05:00.595Z,13.76
2023-06-21T14:08:00.544Z,13.8
2023-06-21T14:11:00.568Z,13.56
2023-06-21T14:14:00.560Z,13.44
2023-06-21T14:17:00.609Z,13.62
2023-06-21T14:20:00.566Z,13.8
2023-06-21T14:23:00.575Z,13.87
2023-06-21T14:26:00.588Z,13.83
2023-06-21T14:29:00.588Z,14.08
2023-06-21T14:32:00.631Z,14.01
2023-06-21T14:35:00.613Z,14.13
2023-06-21T14:38:00.619Z,13.83
2023-06-21T14:41:00.622Z,13.88
2023-06-21T14:44:00.655Z,13.66
2023-06-21T14:47:00.718Z,13.7
2023-06-21T14:50:00.668Z,13.54
2023-06-21T14:53:00.620Z,13.45
2023-06-21T14:56:00.629Z,13.5
2023-06-21T14:59:00.636Z,13.48
2023-06-21T15:02:00.637Z,13.53
2023-06-21T15:05:00.650Z,13.47
2023-06-21T15:08:00.649Z,13.32
2023-06-21T15:11:00.643Z,13.31
2023-06-21T15:14:00.660Z,13.29
2023-06-21T15:17:00.666Z,13.3
2023-06-21T15:20:00.669Z,13.43
2023-06-21T15:23:00.673Z,13.23
2023-06-21T15:26:00.684Z,13.15
2023-06-21T15:29:00.702Z,12.91
2023-06-21T15:32:00.681Z,13.02
2023-06-21T15:35:00.685Z,12.99
2023-06-21T15:38:00.683Z,12.93
2023-06-21T15:41:00.695Z,12.87
2023-06-21T15:44:00.705Z,12.74
2023-06-21T15:47:00.802Z,13.03
2023-06-21T15:50:00.720Z,12.54
2023-06-21T15:53:00.873Z,12.68
2023-06-21T15:56:00.719Z,12.78
2023-06-21T15:59:00.727Z,12.72
2023-06-21T16:02:00.739Z,12.71
2023-06-21T16:05:00.739Z,12.86
2023-06-21T16:08:00.734Z,12.79
2023-06-21T16:11:00.744Z,12.87
2023-06-21T16:14:00.767Z,12.89
2023-06-21T16:17:00.749Z,13
2023-06-21T16:20:00.767Z,13.06
2023-06-21T16:23:00.767Z,13.18
2023-06-21T16:26:00.765Z,13.11
2023-06-21T16:29:00.774Z,13.19
2023-06-21T16:32:00.846Z,13.18
2023-06-21T16:35:00.779Z,12.95
2023-06-21T16:38:00.793Z,13.04
2023-06-21T16:41:00.800Z,13.08
2023-06-21T16:44:00.812Z,13.08
2023-06-21T16:47:00.804Z,13.02
2023-06-21T16:50:00.813Z,13.09
2023-06-21T16:53:00.819Z,12.99
2023-06-21T16:56:00.815Z,13.04
2023-06-21T16:59:00.829Z,13.15
2023-06-21T17:02:00.885Z,13.34
2023-06-21T17:05:00.826Z,13.05
2023-06-21T17:08:00.842Z,13.21
2023-06-21T17:11:00.848Z,12.97
2023-06-21T17:14:00.848Z,12.99
2023-06-21T17:17:00.864Z,12.94
2023-06-21T17:20:00.867Z,12.87
2023-06-21T17:23:00.863Z,12.84
2023-06-21T17:26:00.876Z,12.87
2023-06-21T17:29:00.880Z,12.84
2023-06-21T17:32:00.886Z,12.84
2023-06-21T17:35:00.889Z,12.71
2023-06-21T17:38:00.954Z,12.99
2023-06-21T17:41:00.879Z,12.78
2023-06-21T17:44:00.904Z,12.82
2023-06-21T17:47:00.895Z,12.88
2023-06-21T17:50:00.899Z,12.99
2023-06-21T17:53:00.895Z,12.94
2023-06-21T17:56:00.911Z,12.82
2023-06-21T17:59:00.934Z,12.92
2023-06-21T18:02:00.924Z,12.9
2023-06-21T18:05:00.941Z,12.91
2023-06-21T18:08:00.934Z,12.84
2023-06-21T18:11:00.937Z,12.88
2023-06-21T18:14:00.952Z,12.86
2023-06-21T18:17:00.951Z,12.87
2023-06-21T18:20:00.996Z,12.86
2023-06-21T18:23:00.973Z,12.88
2023-06-21T18:26:00.956Z,12.9
2023-06-21T18:29:00.966Z,12.86
2023-06-21T18:32:01.004Z,12.84
2023-06-21T18:35:00.975Z,12.83
2023-06-21T18:38:00.970Z,12.95
2023-06-21T18:41:00.978Z,12.98
2023-06-21T18:44:00.988Z,12.98
2023-06-21T18:47:00.989Z,13.01
2023-06-21T18:50:00.996Z,12.96
2023-06-21T18:53:00.989Z,13.01
2023-06-21T18:56:01.005Z,12.98
2023-06-21T18:59:01.015Z,12.98
2023-06-21T19:02:01.002Z,13
2023-06-21T19:05:01.067Z,13.07
2023-06-21T19:08:01.009Z,12.99
2023-06-21T19:11:01.023Z,13.08
2023-06-21T19:14:01.055Z,13.19
2023-06-21T19:17:01.039Z,13.05
2023-06-21T19:20:01.033Z,13
2023-06-21T19:23:01.041Z,13.04
2023-06-21T19:26:01.045Z,13.1
2023-06-21T19:29:01.041Z,13.1
2023-06-21T19:32:01.065Z,13.11
2023-06-21T19:35:01.100Z,13.17
2023-06-21T19:38:01.082Z,13.09
2023-06-21T19:41:01.076Z,13.08
2023-06-21T19:44:01.080Z,13.07
2023-06-21T19:47:01.096Z,13.08
2023-06-21T19:50:01.077Z,13.09
2023-06-21T19:53:01.082Z,13.08
2023-06-21T19:56:01.098Z,13.05
2023-06-21T19:59:01.097Z,13.08
2023-06-21T20:02:01.132Z,13.24
2023-06-21T20:05:01.107Z,13.17
2023-06-21T20:08:01.112Z,13.11
2023-06-21T20:11:01.116Z,13.18
2023-06-21T20:14:01.125Z,13.21
2023-06-21T20:17:01.126Z,13.27
2023-06-21T20:20:01.138Z,13.18
2023-06-21T20:23:01.136Z,13.13
2023-06-21T20:26:01.158Z,13.06
2023-06-21T20:29:01.149Z,13.04
2023-06-21T20:32:01.149Z,13.04
2023-06-21T20:35:01.181Z,13.06
2023-06-21T20:38:01.159Z,13.05
2023-06-21T20:41:03.753Z,13.01
2023-06-21T20:44:01.181Z,12.95
2023-06-21T20:47:01.171Z,13.01
2023-06-21T20:50:01.182Z,12.95
2023-06-21T20:53:01.192Z,12.95
2023-06-21T20:56:01.201Z,12.86
2023-06-21T20:59:01.186Z,13.04
2023-06-21T21:02:01.329Z,13.07
2023-06-21T21:05:01.216Z,13.09
2023-06-21T21:08:01.213Z,13.04
2023-06-21T21:11:01.215Z,13.14
2023-06-21T21:14:01.223Z,13.09
2023-06-21T21:17:01.235Z,13.09
2023-06-21T21:20:01.234Z,12.93
2023-06-21T21:23:01.238Z,12.86
2023-06-21T21:26:01.243Z,12.85
2023-06-21T21:29:01.253Z,12.94
2023-06-21T21:32:01.296Z,12.98
2023-06-21T21:35:01.251Z,13.05
2023-06-21T21:38:01.263Z,13.17
2023-06-21T21:41:01.269Z,13.17
2023-06-21T21:44:01.398Z,13.21
2023-06-21T21:47:01.263Z,13.22
2023-06-21T21:50:01.326Z,13.14
2023-06-21T21:53:01.283Z,13.18
2023-06-21T21:56:01.276Z,13.24
2023-06-21T21:59:01.288Z,13.26
2023-06-21T22:02:01.342Z,13.18
2023-06-21T22:05:01.337Z,13.14
2023-06-21T22:08:01.299Z,13.25
2023-06-21T22:11:01.307Z,13.39
2023-06-21T22:14:01.318Z,13.32
2023-06-21T22:17:01.312Z,13.26
2023-06-21T22:20:01.318Z,13.22
2023-06-21T22:23:01.334Z,13.09
2023-06-21T22:26:01.354Z,13.07
2023-06-21T22:29:01.340Z,13.11
2023-06-21T22:32:01.330Z,13.14
2023-06-21T22:35:01.346Z,13.27
2023-06-21T22:38:01.352Z,13.36
2023-06-21T22:41:01.348Z,13.36
2023-06-21T22:44:01.355Z,13.32
2023-06-21T22:47:01.361Z,13.18
2023-06-21T22:50:01.398Z,13.31
2023-06-21T22:53:01.371Z,13.38
2023-06-21T22:56:01.380Z,13.25
2023-06-21T22:59:01.380Z,13.09
2023-06-21T23:02:01.385Z,12.94
2023-06-21T23:05:01.417Z,12.9
2023-06-21T23:08:01.402Z,13
2023-06-21T23:11:01.410Z,12.91
2023-06-21T23:14:01.405Z,12.91
2023-06-21T23:17:01.417Z,12.94
2023-06-21T23:20:01.411Z,12.93
2023-06-21T23:23:01.422Z,13.02
2023-06-21T23:26:01.424Z,13.01
2023-06-21T23:29:01.437Z,12.88
2023-06-21T23:32:01.446Z,12.84
2023-06-21T23:35:01.445Z,13.04
2023-06-21T23:38:01.437Z,13.01
2023-06-21T23:41:01.468Z,12.91
2023-06-21T23:44:01.444Z,12.81
2023-06-21T23:47:01.465Z,12.82
2023-06-21T23:50:01.477Z,12.91
2023-06-21T23:53:01.472Z,12.82
2023-06-21T23:56:01.466Z,12.77
2023-06-21T23:59:01.468Z,12.7
